createdAt,value
2022-12-01T00:05:33.601Z,85.37
2022-12-01T00:20:36.789Z,85.52
2022-12-01T00:35:42.000Z,85.27
2022-12-01T00:50:46.025Z,85.57
2022-12-01T01:05:49.402Z,85.52
2022-12-01T01:21:04.548Z,85.63
2022-12-01T01:36:07.977Z,84.62
2022-12-01T01:51:13.443Z,84.48
2022-12-01T02:06:16.943Z,84.56
2022-12-01T02:21:29.073Z,84.17
2022-12-01T02:36:37.450Z,84.06
2022-12-01T02:51:45.144Z,84.34
2022-12-01T03:07:20.300Z,83.81
2022-12-01T03:22:26.805Z,83.67
2022-12-01T03:37:36.930Z,83.79
2022-12-01T03:53:04.764Z,84.10
2022-12-01T04:08:08.217Z,83.71
2022-12-01T04:23:11.412Z,82.77
2022-12-01T04:38:14.667Z,82.58
2022-12-01T04:53:18.214Z,82.37
2022-12-01T05:08:21.493Z,82.36
2022-12-01T05:23:29.658Z,82.78
2022-12-01T05:38:32.788Z,82.54
2022-12-01T05:53:36.563Z,82.69
2022-12-01T06:08:39.839Z,83.54
2022-12-01T06:23:43.078Z,84.20
2022-12-01T06:38:46.250Z,84.63
2022-12-01T06:53:59.746Z,84.28
2022-12-01T07:09:07.352Z,84.58
2022-12-01T07:24:12.967Z,84.69
2022-12-01T07:39:17.454Z,85.49
2022-12-01T07:54:21.526Z,85.84
2022-12-01T08:09:24.733Z,86.31
2022-12-01T08:24:27.953Z,86.97
2022-12-01T08:39:31.667Z,86.49
2022-12-01T08:54:35.157Z,85.38
2022-12-01T09:09:38.650Z,84.89
2022-12-01T09:24:42.466Z,83.94
2022-12-01T09:39:46.336Z,82.88
2022-12-01T09:54:49.982Z,82.85
2022-12-01T10:09:59.833Z,81.28
2022-12-01T10:25:19.284Z,80.55
2022-12-01T10:40:23.559Z,80.81
2022-12-01T10:55:33.283Z,81.92
2022-12-01T11:10:38.399Z,83.20
2022-12-01T11:25:42.117Z,83.28
2022-12-01T11:40:50.786Z,84.60
2022-12-01T11:56:15.364Z,84.89
2022-12-01T12:11:32.292Z,85.46
2022-12-01T12:27:11.838Z,85.29
2022-12-01T12:42:39.432Z,85.47
2022-12-01T12:57:50.320Z,86.21
2022-12-01T13:13:07.131Z,86.75
2022-12-01T13:28:20.948Z,88.00
2022-12-01T13:43:24.341Z,88.94
2022-12-01T13:58:34.149Z,88.79
2022-12-01T14:13:50.847Z,89.66
2022-12-01T14:29:03.570Z,89.92
2022-12-01T14:44:14.450Z,89.42
2022-12-01T14:59:24.774Z,89.27
2022-12-01T15:14:28.469Z,88.63
2022-12-01T15:29:37.470Z,89.65
2022-12-01T15:44:41.120Z,89.70
2022-12-01T15:59:47.058Z,89.75
2022-12-01T16:15:13.387Z,89.12
2022-12-01T16:30:22.824Z,89.75
2022-12-01T16:45:27.051Z,89.93
2022-12-01T17:00:30.896Z,89.82
2022-12-01T17:15:34.994Z,89.82
2022-12-01T17:30:39.476Z,89.90
2022-12-01T17:45:43.373Z,89.44
2022-12-01T18:00:49.417Z,89.35
2022-12-01T18:15:52.973Z,88.71
2022-12-01T18:30:56.493Z,89.56
2022-12-01T18:46:06.348Z,89.14
2022-12-01T19:01:21.375Z,88.00
2022-12-01T19:16:25.008Z,87.42
2022-12-01T19:31:29.484Z,86.65
2022-12-01T19:46:33.758Z,86.52
2022-12-01T20:01:38.004Z,85.34
2022-12-01T20:16:41.728Z,84.39
2022-12-01T20:31:46.086Z,82.64
2022-12-01T20:46:49.393Z,81.30
2022-12-01T21:01:53.376Z,81.13
2022-12-01T21:17:02.685Z,80.72
2022-12-01T21:32:14.248Z,80.54
2022-12-01T21:47:27.465Z,80.27
2022-12-01T22:02:51.811Z,80.09
2022-12-01T22:17:57.065Z,79.04
2022-12-01T22:33:10.999Z,78.19
2022-12-01T22:48:39.095Z,78.29
2022-12-01T23:03:42.274Z,78.08
2022-12-01T23:18:45.876Z,78.08
2022-12-01T23:33:49.276Z,78.04
2022-12-01T23:48:58.487Z,77.57
